Airport Name : Essaouira Mogador Intl

Other Name : Mogador

ICAO : GMMI

IATA : ESU

FAA :

Latitude : 31.3975

Longitude : -9.681667

Country : Morocco

Local Date and Time : 17 Oct 2021 07:23

 

TAF (Terminal Aerodrome Forecast)

TAF GMMI 170500Z 1706/1812 VRB02KT 8000 NSC

 

METAR (METeorological Aerodrome Report)

GMMI 170600Z AUTO VRB01KT //// ////// 13/08 Q1016 NOSIG

GMMI 170500Z AUTO VRB01KT //// ////// 15/10 Q1015 NOSIG

To Charter a Jet Click here.